createdAt,value
2022-12-11T00:01:12.973Z,45.78
2022-12-11T00:03:40.121Z,42.40
2022-12-11T00:06:08.206Z,44.33
2022-12-11T00:08:35.126Z,46.47
2022-12-11T00:11:01.981Z,44.13
2022-12-11T00:13:29.074Z,45.47
2022-12-11T00:15:57.965Z,44.65
2022-12-11T00:18:24.833Z,40.38
2022-12-11T00:20:51.619Z,41.75
2022-12-11T00:23:18.552Z,39.33
2022-12-11T00:25:46.508Z,42.60
2022-12-11T00:28:14.916Z,39.67
2022-12-11T00:30:42.575Z,37.80
2022-12-11T00:33:09.510Z,37.45
2022-12-11T00:35:43.985Z,39.20
2022-12-11T00:38:18.534Z,32.05
2022-12-11T00:40:45.461Z,39.83
2022-12-11T00:43:12.535Z,39.53
2022-12-11T00:45:41.367Z,35.67
2022-12-11T00:48:09.035Z,35.72
2022-12-11T00:50:36.444Z,28.70
2022-12-11T00:53:04.416Z,34.97
2022-12-11T00:55:31.390Z,31.83
2022-12-11T00:58:00.948Z,38.78
2022-12-11T01:00:27.843Z,33.45
2022-12-11T01:02:54.655Z,31.92
2022-12-11T01:05:21.497Z,30.50
2022-12-11T01:07:48.375Z,30.02
2022-12-11T01:10:24.289Z,33.35
2022-12-11T01:12:51.168Z,37.50
2022-12-11T01:15:18.589Z,42.30
2022-12-11T01:17:45.642Z,36.17
2022-12-11T01:20:12.611Z,38.45
2022-12-11T01:22:39.589Z,33.20
2022-12-11T01:25:06.503Z,39.65
2022-12-11T01:27:33.313Z,32.58
2022-12-11T01:30:00.137Z,35.10
2022-12-11T01:32:28.043Z,39.33
2022-12-11T01:34:54.983Z,36.10
2022-12-11T01:37:21.806Z,37.50
2022-12-11T01:39:48.598Z,39.53
2022-12-11T01:42:19.409Z,40.35
2022-12-11T01:44:46.236Z,33.13
2022-12-11T01:47:13.285Z,35.22
2022-12-11T01:49:41.240Z,39.03
2022-12-11T01:52:11.634Z,27.55
2022-12-11T01:54:38.533Z,34.42
2022-12-11T01:57:06.790Z,41.45
2022-12-11T01:59:35.403Z,38.95
2022-12-11T02:02:15.175Z,39.10
2022-12-11T02:04:43.013Z,34.67
2022-12-11T02:07:10.411Z,44.33
2022-12-11T02:09:38.442Z,41.55
2022-12-11T02:12:11.696Z,40.38
2022-12-11T02:14:57.480Z,43.88
2022-12-11T02:17:50.453Z,35.45
2022-12-11T02:20:17.605Z,36.13
2022-12-11T02:22:47.359Z,33.03
2022-12-11T02:25:14.107Z,40.83
2022-12-11T02:28:04.162Z,40.22
2022-12-11T02:30:31.636Z,36.88
2022-12-11T02:32:59.049Z,42.05
2022-12-11T02:35:33.571Z,35.63
2022-12-11T02:38:06.409Z,35.75
2022-12-11T02:40:35.080Z,40.28
2022-12-11T02:43:03.619Z,36.33
2022-12-11T02:45:31.155Z,31.67
2022-12-11T02:47:59.090Z,37.55
2022-12-11T02:50:26.069Z,34.53
2022-12-11T02:52:54.479Z,41.47
2022-12-11T02:55:22.118Z,38.70
2022-12-11T02:57:51.028Z,41.97
2022-12-11T03:00:18.807Z,42.55
2022-12-11T03:02:46.326Z,39.58
2022-12-11T03:05:13.865Z,38.25
2022-12-11T03:07:41.687Z,39.60
2022-12-11T03:10:09.845Z,36.38
2022-12-11T03:12:37.766Z,39.70
2022-12-11T03:15:06.808Z,39.22
2022-12-11T03:17:45.595Z,43.17
2022-12-11T03:20:30.843Z,40.67
2022-12-11T03:23:22.062Z,27.27
2022-12-11T03:25:51.714Z,34.75
2022-12-11T03:28:20.690Z,38.97
2022-12-11T03:30:49.949Z,31.42
2022-12-11T03:33:29.626Z,38.25
2022-12-11T03:36:01.025Z,42.22
2022-12-11T03:38:37.289Z,39.42
2022-12-11T03:41:05.530Z,39.42
2022-12-11T03:43:32.739Z,37.85
2022-12-11T03:46:00.324Z,43.67
2022-12-11T03:48:28.850Z,44.00
2022-12-11T03:50:56.057Z,37.85
2022-12-11T03:53:23.172Z,37.20
2022-12-11T03:55:50.742Z,40.50
2022-12-11T03:58:17.497Z,40.72
2022-12-11T04:00:44.373Z,38.42
2022-12-11T04:03:14.740Z,43.63
2022-12-11T04:05:43.723Z,38.20
2022-12-11T04:08:10.716Z,40.28
2022-12-11T04:10:37.911Z,36.75
2022-12-11T04:13:04.787Z,36.67
2022-12-11T04:15:31.623Z,33.13
2022-12-11T04:18:17.327Z,36.72
2022-12-11T04:21:02.743Z,38.88
2022-12-11T04:23:48.457Z,29.40
2022-12-11T04:26:16.839Z,39.03
2022-12-11T04:28:44.253Z,31.98
2022-12-11T04:31:12.610Z,31.23
2022-12-11T04:33:39.508Z,29.58
2022-12-11T04:36:06.615Z,35.75
2022-12-11T04:38:33.626Z,32.78
2022-12-11T04:41:04.946Z,32.33
2022-12-11T04:43:31.689Z,34.63
2022-12-11T04:46:02.462Z,38.65
2022-12-11T04:48:29.377Z,33.05
2022-12-11T04:50:56.118Z,30.27
2022-12-11T04:53:23.005Z,31.90
2022-12-11T04:55:49.845Z,33.67
2022-12-11T04:58:16.739Z,37.72
2022-12-11T05:00:43.580Z,26.45
2022-12-11T05:03:10.424Z,25.90
2022-12-11T05:05:37.237Z,28.60
2022-12-11T05:08:04.273Z,32.65
2022-12-11T05:10:31.156Z,28.13
2022-12-11T05:12:57.978Z,29.83
2022-12-11T05:15:24.774Z,38.80
2022-12-11T05:17:51.729Z,32.25
2022-12-11T05:20:18.556Z,33.58
2022-12-11T05:22:45.388Z,33.13
2022-12-11T05:25:12.452Z,25.25
2022-12-11T05:27:39.453Z,31.30
2022-12-11T05:30:06.823Z,26.73
2022-12-11T05:32:33.593Z,24.35
2022-12-11T05:35:00.363Z,28.15
2022-12-11T05:37:27.271Z,28.35
2022-12-11T05:39:54.035Z,31.55
2022-12-11T05:42:24.112Z,29.90
2022-12-11T05:44:55.325Z,25.70
2022-12-11T05:47:22.125Z,26.42
2022-12-11T05:49:48.893Z,27.88
2022-12-11T05:52:16.756Z,23.75
2022-12-11T05:54:43.593Z,21.75
2022-12-11T05:57:10.456Z,27.15
2022-12-11T05:59:37.307Z,21.08
2022-12-11T06:02:04.281Z,24.73
2022-12-11T06:04:31.221Z,21.45
2022-12-11T06:06:58.093Z,29.33
2022-12-11T06:09:24.851Z,21.80
2022-12-11T06:11:51.613Z,22.70
2022-12-11T06:14:18.421Z,22.88
2022-12-11T06:16:45.311Z,22.45
2022-12-11T06:19:15.807Z,21.48
2022-12-11T06:21:42.709Z,32.10
2022-12-11T06:24:10.584Z,27.70
2022-12-11T06:26:37.546Z,20.45
2022-12-11T06:29:07.644Z,27.52
2022-12-11T06:31:37.757Z,25.67
2022-12-11T06:34:05.158Z,26.02
2022-12-11T06:36:31.994Z,20.33
2022-12-11T06:38:59.133Z,24.20
2022-12-11T06:41:26.127Z,22.90
2022-12-11T06:43:53.010Z,21.17
2022-12-11T06:46:20.009Z,25.85
2022-12-11T06:48:47.642Z,24.20
2022-12-11T06:51:15.830Z,17.98
2022-12-11T06:53:43.040Z,20.10
2022-12-11T06:56:11.411Z,18.55
2022-12-11T06:58:40.252Z,20.20
2022-12-11T07:01:17.563Z,22.88
2022-12-11T07:03:44.430Z,20.20
2022-12-11T07:06:11.325Z,27.77
2022-12-11T07:08:38.152Z,23.85
2022-12-11T07:11:09.611Z,19.27
2022-12-11T07:13:36.849Z,18.83
2022-12-11T07:16:04.873Z,19.92
2022-12-11T07:18:34.623Z,21.10
2022-12-11T07:21:01.441Z,23.30
2022-12-11T07:23:28.841Z,19.00
2022-12-11T07:25:56.152Z,15.85
2022-12-11T07:28:22.920Z,20.80
2022-12-11T07:30:49.901Z,22.33
2022-12-11T07:33:16.729Z,15.05
2022-12-11T07:35:43.490Z,22.95
2022-12-11T07:38:10.603Z,16.48
2022-12-11T07:40:37.439Z,18.92
2022-12-11T07:43:04.261Z,21.63
2022-12-11T07:45:31.132Z,22.77
2022-12-11T07:47:58.103Z,17.40
2022-12-11T07:50:25.068Z,17.02
2022-12-11T07:52:52.443Z,18.38
2022-12-11T07:55:19.266Z,19.02
2022-12-11T07:57:46.132Z,18.88
2022-12-11T08:00:13.223Z,20.15
2022-12-11T08:02:40.164Z,16.75
2022-12-11T08:05:07.761Z,17.55
2022-12-11T08:07:35.484Z,19.98
2022-12-11T08:10:02.699Z,23.65
2022-12-11T08:12:29.541Z,18.77
2022-12-11T08:14:56.359Z,22.25
2022-12-11T08:17:28.781Z,17.77
2022-12-11T08:19:57.009Z,17.10
2022-12-11T08:22:23.885Z,16.67
2022-12-11T08:24:50.735Z,19.27
2022-12-11T08:27:17.589Z,21.52
2022-12-11T08:29:44.509Z,19.98
2022-12-11T08:32:13.705Z,17.70
2022-12-11T08:34:40.626Z,24.42
2022-12-11T08:37:07.401Z,16.30
2022-12-11T08:39:34.185Z,20.27
2022-12-11T08:42:01.109Z,18.75
2022-12-11T08:44:28.391Z,18.92
2022-12-11T08:46:55.187Z,18.95
2022-12-11T08:49:22.009Z,16.55
2022-12-11T08:51:48.841Z,21.45
2022-12-11T08:54:15.716Z,22.35
2022-12-11T08:56:42.534Z,17.27
2022-12-11T08:59:09.409Z,22.67
2022-12-11T09:01:36.401Z,23.30
2022-12-11T09:04:03.700Z,18.05
2022-12-11T09:06:32.493Z,18.20
2022-12-11T09:09:00.187Z,20.10
2022-12-11T09:11:28.848Z,25.02
2022-12-11T09:13:55.878Z,18.45
2022-12-11T09:16:23.717Z,17.70
2022-12-11T09:18:51.542Z,20.80
2022-12-11T09:21:19.866Z,23.00
2022-12-11T09:23:47.171Z,19.00
2022-12-11T09:26:15.529Z,17.95
2022-12-11T09:28:46.702Z,20.23
2022-12-11T09:31:14.869Z,21.13
2022-12-11T09:33:41.680Z,22.98
2022-12-11T09:36:08.663Z,15.93
2022-12-11T09:38:36.572Z,20.00
2022-12-11T09:41:23.056Z,23.33
2022-12-11T09:43:53.152Z,18.63
2022-12-11T09:46:24.435Z,23.80
2022-12-11T09:48:53.601Z,24.58
2022-12-11T09:51:27.146Z,21.73
2022-12-11T09:53:55.399Z,20.10
2022-12-11T09:56:25.608Z,17.27
2022-12-11T09:58:52.356Z,21.95
2022-12-11T10:01:26.438Z,23.50
2022-12-11T10:04:11.996Z,25.92
2022-12-11T10:06:43.298Z,20.25
2022-12-11T10:09:33.602Z,20.13
2022-12-11T10:12:06.675Z,20.30
2022-12-11T10:14:39.191Z,22.13
2022-12-11T10:17:10.740Z,20.23
2022-12-11T10:19:37.972Z,22.08
2022-12-11T10:22:05.033Z,24.65
2022-12-11T10:25:10.157Z,24.92
2022-12-11T10:27:31.530Z,21.10
2022-12-11T10:30:05.615Z,25.80
2022-12-11T10:32:40.849Z,21.80
2022-12-11T10:35:08.394Z,25.75
2022-12-11T10:37:35.339Z,24.17
2022-12-11T10:40:02.431Z,24.10
2022-12-11T10:42:29.248Z,26.27
2022-12-11T10:44:57.330Z,23.15
2022-12-11T10:47:24.189Z,28.83
2022-12-11T10:49:56.051Z,25.77
2022-12-11T10:52:25.920Z,30.52
2022-12-11T10:55:04.115Z,26.25
2022-12-11T10:59:58.198Z,26.38
2022-12-11T11:02:26.589Z,24.38
2022-12-11T11:04:54.432Z,25.00
2022-12-11T11:07:23.715Z,29.48
2022-12-11T11:09:51.765Z,31.48
2022-12-11T11:12:18.576Z,27.85
2022-12-11T11:14:45.395Z,30.88
2022-12-11T11:17:16.562Z,28.30
2022-12-11T11:19:46.320Z,27.00
2022-12-11T11:22:14.746Z,27.67
2022-12-11T11:24:55.976Z,27.63
2022-12-11T11:27:25.829Z,30.98
2022-12-11T11:29:54.953Z,29.90
2022-12-11T11:32:41.166Z,29.50
2022-12-11T11:35:11.728Z,32.38
2022-12-11T11:37:40.549Z,37.22
2022-12-11T11:40:21.312Z,36.50
2022-12-11T11:43:06.994Z,36.17
2022-12-11T11:45:54.103Z,30.10
2022-12-11T11:48:39.724Z,36.13
2022-12-11T11:51:32.818Z,35.92
2022-12-11T11:54:01.670Z,31.17
2022-12-11T11:56:35.123Z,34.83
2022-12-11T11:59:06.567Z,33.42
2022-12-11T12:01:33.545Z,35.75
2022-12-11T12:04:01.710Z,31.88
2022-12-11T12:06:37.747Z,32.65
2022-12-11T12:09:20.411Z,39.45
2022-12-11T12:11:49.995Z,42.85
2022-12-11T12:17:20.335Z,43.67
2022-12-11T12:19:53.169Z,39.10
2022-12-11T12:22:27.765Z,41.03
2022-12-11T12:25:03.716Z,38.58
2022-12-11T12:27:53.948Z,35.10
2022-12-11T12:30:23.201Z,37.75
2022-12-11T12:32:56.577Z,37.97
2022-12-11T12:35:36.277Z,34.17
2022-12-11T12:38:09.511Z,39.67
2022-12-11T12:40:59.613Z,39.28
2022-12-11T12:43:35.550Z,35.28
2022-12-11T12:46:10.371Z,35.78
2022-12-11T12:48:37.475Z,40.28
2022-12-11T12:51:04.555Z,39.05
2022-12-11T12:53:33.521Z,42.60
2022-12-11T12:56:01.996Z,39.65
2022-12-11T12:58:34.954Z,40.53
2022-12-11T13:01:14.212Z,44.28
2022-12-11T13:03:50.982Z,40.80
2022-12-11T13:06:28.453Z,43.70
2022-12-11T13:08:55.401Z,46.50
2022-12-11T13:11:30.778Z,45.10
2022-12-11T13:14:05.519Z,41.30
2022-12-11T13:16:37.237Z,55.30
2022-12-11T13:19:16.095Z,46.47
2022-12-11T13:21:42.936Z,47.45
2022-12-11T13:24:12.706Z,45.45
2022-12-11T13:26:40.269Z,42.83
2022-12-11T13:29:26.998Z,46.13
2022-12-11T13:32:02.375Z,38.72
2022-12-11T13:34:33.714Z,49.78
2022-12-11T13:37:02.538Z,44.35
2022-12-11T13:39:31.309Z,41.40
2022-12-11T13:42:00.218Z,45.40
2022-12-11T13:44:32.922Z,44.70
2022-12-11T13:47:01.617Z,49.67
2022-12-11T13:49:36.877Z,43.75
2022-12-11T13:52:04.546Z,51.00
2022-12-11T13:54:32.423Z,47.15
2022-12-11T13:57:01.271Z,44.17
2022-12-11T13:59:28.645Z,42.67
2022-12-11T14:02:00.206Z,45.15
2022-12-11T14:04:28.375Z,51.45
2022-12-11T14:06:56.012Z,46.63
2022-12-11T14:09:24.474Z,45.17
2022-12-11T14:11:56.615Z,44.10
2022-12-11T14:14:26.214Z,48.40
2022-12-11T14:16:53.183Z,47.22
2022-12-11T14:19:21.019Z,47.80
2022-12-11T14:22:17.381Z,46.53
2022-12-11T14:24:52.182Z,46.10
2022-12-11T14:27:19.721Z,46.70
2022-12-11T14:29:47.054Z,46.25
2022-12-11T14:32:19.248Z,42.65
2022-12-11T14:34:47.196Z,44.08
2022-12-11T14:37:15.954Z,42.85
2022-12-11T14:39:55.184Z,42.63
2022-12-11T14:42:23.757Z,41.60
2022-12-11T14:44:53.792Z,42.78
2022-12-11T14:47:23.271Z,42.13
2022-12-11T14:49:53.350Z,45.95
2022-12-11T14:52:22.903Z,44.55
2022-12-11T14:55:07.152Z,43.45
2022-12-11T14:57:34.667Z,43.53
2022-12-11T15:00:01.463Z,47.58
2022-12-11T15:02:30.624Z,40.10
2022-12-11T15:05:03.924Z,50.78
2022-12-11T15:07:30.845Z,45.03
2022-12-11T15:09:57.687Z,44.55
2022-12-11T15:12:24.560Z,52.75
2022-12-11T15:14:55.908Z,53.85
2022-12-11T15:17:23.571Z,46.17
2022-12-11T15:19:55.808Z,51.00
2022-12-11T15:22:26.216Z,46.22
2022-12-11T15:24:53.935Z,50.22
2022-12-11T15:27:24.829Z,47.25
2022-12-11T15:29:51.697Z,44.25
2022-12-11T15:32:20.040Z,46.60
2022-12-11T15:34:51.442Z,50.88
2022-12-11T15:37:22.712Z,68.07
2022-12-11T15:39:49.541Z,104.22
2022-12-11T15:42:20.278Z,54.47
2022-12-11T15:44:47.140Z,70.72
2022-12-11T15:47:15.474Z,209.32
2022-12-11T15:49:42.424Z,108.60
2022-12-11T15:52:09.246Z,83.25
2022-12-11T15:54:36.097Z,48.40
2022-12-11T15:57:04.744Z,50.75
2022-12-11T15:59:31.978Z,55.28
2022-12-11T16:01:58.870Z,54.13
2022-12-11T16:04:25.833Z,48.42
2022-12-11T16:06:53.274Z,59.88
2022-12-11T16:09:20.339Z,49.17
2022-12-11T16:11:47.289Z,66.50
2022-12-11T16:14:14.051Z,51.45
2022-12-11T16:16:40.855Z,47.42
2022-12-11T16:19:07.633Z,45.67
2022-12-11T16:21:34.454Z,54.97
2022-12-11T16:24:01.335Z,57.03
2022-12-11T16:26:28.164Z,54.13
2022-12-11T16:28:54.918Z,54.88
2022-12-11T16:31:21.944Z,59.25
2022-12-11T16:33:48.825Z,47.95
2022-12-11T16:36:16.757Z,49.65
2022-12-11T16:38:53.963Z,53.97
2022-12-11T16:41:21.512Z,57.47
2022-12-11T16:43:48.378Z,60.22
2022-12-11T16:46:19.041Z,56.38
2022-12-11T16:48:46.155Z,57.38
2022-12-11T16:51:13.328Z,57.25
2022-12-11T16:53:40.245Z,48.78
2022-12-11T16:56:07.671Z,48.22
2022-12-11T16:58:34.529Z,47.30
2022-12-11T17:01:04.830Z,54.15
2022-12-11T17:03:31.994Z,51.80
2022-12-11T17:05:58.838Z,51.50
2022-12-11T17:08:26.115Z,53.17
2022-12-11T17:10:53.058Z,51.38
2022-12-11T17:13:20.028Z,53.40
2022-12-11T17:15:47.316Z,51.05
2022-12-11T17:18:14.201Z,50.47
2022-12-11T17:20:44.686Z,51.47
2022-12-11T17:23:11.956Z,54.80
2022-12-11T17:25:42.545Z,49.92
2022-12-11T17:28:10.034Z,44.95
2022-12-11T17:30:41.367Z,46.42
2022-12-11T17:33:08.314Z,53.78
2022-12-11T17:35:35.098Z,37.05
2022-12-11T17:38:02.011Z,36.35
2022-12-11T17:40:28.896Z,45.47
2022-12-11T17:42:55.687Z,37.55
2022-12-11T17:45:22.551Z,40.05
2022-12-11T17:47:49.460Z,44.33
2022-12-11T17:50:16.282Z,51.00
2022-12-11T17:52:44.495Z,35.72
2022-12-11T17:55:11.778Z,46.65
2022-12-11T17:57:38.854Z,42.03
2022-12-11T18:00:06.900Z,37.08
2022-12-11T18:02:34.410Z,34.22
2022-12-11T18:05:01.297Z,40.70
2022-12-11T18:07:28.109Z,38.53
2022-12-11T18:09:55.174Z,36.78
2022-12-11T18:12:22.042Z,42.95
2022-12-11T18:14:48.881Z,47.72
2022-12-11T18:17:15.651Z,44.78
2022-12-11T18:19:45.991Z,45.70
2022-12-11T18:22:13.664Z,37.05
2022-12-11T18:24:40.417Z,33.95
2022-12-11T18:27:10.982Z,31.02
2022-12-11T18:29:37.963Z,32.10
2022-12-11T18:32:04.891Z,28.83
2022-12-11T18:34:31.708Z,26.63
2022-12-11T18:36:58.548Z,31.90
2022-12-11T18:39:25.463Z,33.40
2022-12-11T18:42:09.945Z,32.75
2022-12-11T18:44:39.125Z,29.00
2022-12-11T18:47:07.038Z,29.90
2022-12-11T18:49:33.842Z,29.23
2022-12-11T18:52:00.760Z,32.20
2022-12-11T18:54:27.725Z,27.05
2022-12-11T18:56:54.583Z,31.38
2022-12-11T18:59:21.409Z,29.38
2022-12-11T19:01:48.271Z,28.35
2022-12-11T19:04:15.141Z,32.13
2022-12-11T19:06:41.924Z,33.38
2022-12-11T19:09:09.216Z,25.55
2022-12-11T19:11:36.322Z,24.20
2022-12-11T19:14:04.879Z,28.27
2022-12-11T19:16:35.741Z,27.92
2022-12-11T19:19:09.932Z,27.90
2022-12-11T19:21:37.763Z,29.50
2022-12-11T19:24:05.535Z,27.55
2022-12-11T19:26:33.026Z,27.40
2022-12-11T19:29:00.367Z,28.17
2022-12-11T19:31:31.813Z,24.20
2022-12-11T19:33:59.531Z,27.13
2022-12-11T19:36:27.601Z,25.48
2022-12-11T19:39:00.939Z,24.20
2022-12-11T19:41:28.691Z,26.48
2022-12-11T19:43:56.324Z,30.60
2022-12-11T19:46:24.119Z,28.10
2022-12-11T19:48:52.051Z,28.98
2022-12-11T19:51:20.277Z,26.10
2022-12-11T19:53:47.835Z,27.98
2022-12-11T19:56:15.469Z,30.02
2022-12-11T19:58:42.603Z,27.63
2022-12-11T20:01:09.502Z,24.83
2022-12-11T20:03:36.578Z,23.27
2022-12-11T20:06:07.503Z,22.40
2022-12-11T20:08:49.983Z,25.00
2022-12-11T20:11:18.774Z,24.08
2022-12-11T20:13:49.677Z,24.05
2022-12-11T20:16:17.217Z,26.83
2022-12-11T20:18:44.386Z,27.88
2022-12-11T20:21:15.426Z,19.67
2022-12-11T20:23:42.949Z,21.98
2022-12-11T20:26:12.186Z,23.50
2022-12-11T20:28:39.083Z,21.45
2022-12-11T20:31:07.384Z,24.52
2022-12-11T20:33:34.525Z,24.38
2022-12-11T20:36:01.657Z,22.98
2022-12-11T20:38:34.174Z,25.73
2022-12-11T20:41:01.466Z,25.20
2022-12-11T20:43:28.313Z,25.40
2022-12-11T20:45:55.132Z,19.98
2022-12-11T20:48:22.021Z,32.50
2022-12-11T20:50:49.228Z,24.33
2022-12-11T20:53:16.004Z,24.02
2022-12-11T20:55:42.902Z,24.23
2022-12-11T20:58:10.148Z,26.88
2022-12-11T21:00:37.498Z,36.75
2022-12-11T21:03:04.482Z,74.50
2022-12-11T21:05:31.744Z,44.50
2022-12-11T21:07:58.617Z,30.80
2022-12-11T21:10:25.526Z,32.28
2022-12-11T21:12:52.313Z,27.70
2022-12-11T21:15:19.152Z,35.67
2022-12-11T21:17:46.073Z,31.50
2022-12-11T21:20:12.889Z,30.73
2022-12-11T21:22:39.671Z,29.30
2022-12-11T21:25:06.602Z,25.15
2022-12-11T21:27:33.448Z,22.90
2022-12-11T21:30:00.357Z,24.95
2022-12-11T21:32:27.605Z,33.72
2022-12-11T21:34:56.841Z,31.48
2022-12-11T21:37:23.693Z,26.20
2022-12-11T21:39:50.679Z,26.73
2022-12-11T21:42:17.470Z,22.77
2022-12-11T21:47:31.020Z,28.98
2022-12-11T21:49:57.786Z,25.15
2022-12-11T21:52:24.647Z,25.23
2022-12-11T21:54:51.484Z,23.65
2022-12-11T21:57:24.377Z,23.63
2022-12-11T21:59:53.018Z,27.65
2022-12-11T22:02:20.039Z,26.95
2022-12-11T22:04:47.596Z,23.73
2022-12-11T22:07:15.410Z,28.17
2022-12-11T22:09:42.645Z,30.90
2022-12-11T22:12:23.575Z,22.90
2022-12-11T22:14:50.419Z,35.88
2022-12-11T22:17:18.856Z,23.38
2022-12-11T22:19:45.886Z,25.00
2022-12-11T22:22:13.111Z,16.92
2022-12-11T22:24:40.467Z,23.15
2022-12-11T22:27:07.457Z,24.90
2022-12-11T22:29:34.928Z,28.73
2022-12-11T22:32:01.803Z,22.02
2022-12-11T22:34:29.110Z,27.25
2022-12-11T22:36:56.482Z,26.13
2022-12-11T22:39:24.507Z,27.23
2022-12-11T22:41:51.449Z,27.83
2022-12-11T22:44:20.042Z,25.65
2022-12-11T22:46:50.247Z,24.70
2022-12-11T22:49:18.424Z,24.00
2022-12-11T22:51:45.428Z,23.13
2022-12-11T22:54:12.225Z,26.58
2022-12-11T22:56:39.029Z,24.17
2022-12-11T22:59:07.558Z,25.65
2022-12-11T23:01:34.586Z,22.52
2022-12-11T23:04:01.485Z,26.00
2022-12-11T23:06:28.305Z,26.17
2022-12-11T23:08:57.198Z,26.20
2022-12-11T23:11:26.149Z,24.52
2022-12-11T23:13:53.526Z,23.75
2022-12-11T23:16:20.944Z,24.15
2022-12-11T23:18:48.066Z,21.95
2022-12-11T23:21:14.853Z,23.40
2022-12-11T23:23:42.824Z,22.70
2022-12-11T23:26:10.883Z,21.98
2022-12-11T23:28:37.754Z,28.42
2022-12-11T23:31:05.021Z,23.40
2022-12-11T23:33:31.869Z,22.90
2022-12-11T23:35:59.328Z,26.92
2022-12-11T23:38:26.143Z,21.80
2022-12-11T23:40:53.476Z,25.75
2022-12-11T23:43:20.281Z,23.95
2022-12-11T23:45:47.170Z,28.83
2022-12-11T23:48:14.167Z,26.38
2022-12-11T23:50:41.392Z,24.83
2022-12-11T23:53:08.591Z,25.38
2022-12-11T23:55:35.418Z,25.55
2022-12-11T23:58:02.165Z,23.88
